Beni Abbes, Algeria
Current Conditions -  °F | °C
As of 6:00 PM on Friday 28 Nov 2014 (Local Time) from DAOR Reporting Station
Heavy Rain Heavy Rain  
Wind Chill: 52°   Ceiling: 10000
Heat Index: 52°   Visibility: 0.62mi
Dew Point: 46°   Wind: 35mph
Humidity: 82%   Direction: 220°SW
Pressure: 29.35"   Gusts: NA
Location:  30.12°N, 2.17°W
Report Text: DAOR 281700Z 22030KT 1000 +RA FEW026 SCT030 OVC100 11/08 Q0994 RERA
Loading
Personal Weather Stations






























Interactive Weather Map New forecast layout! Learn more

10-Day Weather Forecast

Advertisements
Track Severe Weather on mobile